Time;durP1;ratioP1;P1;durP2;ratioP2;P2;SDS_P1;SDS_P2;PMS_P1;PMS_P2;Temp;Humidity;BMP_temperature;BMP_pressure;BME280_temperature;BME280_humidity;BME280_pressure;Samples;Min_cycle;Max_cycle;Signal;HPM_P1;HPM_P2
2023/06/19 00:01:55;;;;;;;4.93;2.50;;;22.80;82.90;;;;;;5028746;28;20033;-72
2023/06/19 00:04:21;;;;;;;11.30;3.05;;;22.80;82.90;;;;;;5009852;28;20037;-74
2023/06/19 00:06:48;;;;;;;6.55;3.17;;;22.80;83.30;;;;;;5010841;28;20094;-74
2023/06/19 00:09:14;;;;;;;5.22;3.45;;;22.70;83.60;;;;;;5028400;28;20140;-73
2023/06/19 00:11:39;;;;;;;6.38;3.22;;;22.70;83.80;;;;;;5027497;28;20822;-74
2023/06/19 00:14:05;;;;;;;6.53;3.25;;;22.70;84.30;;;;;;5028814;28;20043;-73
2023/06/19 00:16:31;;;;;;;5.78;3.05;;;22.60;84.60;;;;;;5009787;28;20124;-74
2023/06/19 00:18:57;;;;;;;4.43;2.72;;;22.60;85.20;;;;;;5007773;28;20163;-73
2023/06/19 00:21:26;;;;;;;7.55;2.63;;;22.60;85.30;;;;;;5027090;28;20128;-75
2023/06/19 00:23:52;;;;;;;8.10;3.45;;;22.50;85.60;;;;;;5010559;28;20164;-73
2023/06/19 00:26:22;;;;;;;5.05;3.30;;;22.40;86.40;;;;;;5010585;28;20136;-73
2023/06/19 00:28:48;;;;;;;5.32;2.95;;;22.40;86.70;;;;;;5010000;28;20041;-73
2023/06/19 00:31:14;;;;;;;6.00;2.80;;;22.40;87.40;;;;;;5028221;28;20033;-73
2023/06/19 00:33:40;;;;;;;5.25;2.85;;;22.30;87.80;;;;;;5009205;28;20041;-73
2023/06/19 00:36:10;;;;;;;4.32;2.95;;;22.30;88.50;;;;;;5028383;28;20497;-74
2023/06/19 00:38:36;;;;;;;5.05;2.38;;;22.30;89.00;;;;;;5027185;28;20042;-73
2023/06/19 00:41:03;;;;;;;6.85;2.42;;;22.20;89.70;;;;;;5028131;28;20037;-73
2023/06/19 00:43:28;;;;;;;7.07;2.30;;;22.20;89.90;;;;;;5009583;28;20179;-73
2023/06/19 00:45:57;;;;;;;8.45;2.30;;;22.10;90.20;;;;;;5027727;28;20128;-72
2023/06/19 00:48:22;;;;;;;8.13;1.90;;;22.00;90.60;;;;;;5027101;28;20033;-73
2023/06/19 00:50:50;;;;;;;2.50;1.42;;;22.00;91.00;;;;;;5027852;28;20052;-72
2023/06/19 00:53:15;;;;;;;2.40;1.23;;;21.90;91.20;;;;;;5027923;28;20112;-72
2023/06/19 00:55:43;;;;;;;3.03;1.20;;;21.90;91.50;;;;;;5026832;28;20188;-72
2023/06/19 00:58:09;;;;;;;1.42;0.63;;;21.80;92.00;;;;;;5027034;28;20045;-72
2023/06/19 01:00:34;;;;;;;3.15;0.90;;;21.70;92.50;;;;;;5008402;28;20037;-72
2023/06/19 01:03:00;;;;;;;3.15;0.90;;;21.60;93.10;;;;;;5009973;28;20037;-72
2023/06/19 01:05:26;;;;;;;2.40;0.80;;;21.60;93.50;;;;;;5028090;28;20091;-73
2023/06/19 01:08:29;;;;;;;5.53;0.70;;;21.50;93.90;;;;;;5027874;28;20083;-73
2023/06/19 01:10:59;;;;;;;1.02;0.40;;;21.40;94.60;;;;;;5008900;28;20041;-72
2023/06/19 01:13:36;;;;;;;1.02;0.52;;;21.30;95.10;;;;;;5026961;28;20513;-72
2023/06/19 01:16:04;;;;;;;1.45;0.75;;;21.20;95.80;;;;;;5024482;28;20041;-72
2023/06/19 01:18:31;;;;;;;2.40;0.73;;;21.10;96.20;;;;;;5009082;28;20041;-73
2023/06/19 01:20:57;;;;;;;1.75;0.73;;;21.10;96.70;;;;;;5009746;28;20037;-72
2023/06/19 01:23:22;;;;;;;1.98;0.70;;;21.10;97.00;;;;;;5009257;28;20034;-72
2023/06/19 01:25:48;;;;;;;2.90;0.60;;;21.10;97.40;;;;;;5027492;28;20505;-72
2023/06/19 01:28:14;;;;;;;2.80;0.90;;;21.10;97.80;;;;;;5027588;28;20084;-72
2023/06/19 01:30:42;;;;;;;2.92;0.57;;;21.10;97.90;;;;;;5026380;28;20071;-72
2023/06/19 01:33:27;;;;;;;1.38;0.85;;;21.10;98.10;;;;;;5009560;28;20051;-72
2023/06/19 01:35:55;;;;;;;2.88;1.20;;;21.10;98.30;;;;;;5009006;28;20112;-73
2023/06/19 01:38:25;;;;;;;3.33;0.90;;;21.10;98.60;;;;;;5009989;28;20033;-72
2023/06/19 01:40:55;;;;;;;2.17;0.93;;;21.10;98.80;;;;;;5026345;28;20034;-71
2023/06/19 01:43:22;;;;;;;1.88;0.73;;;21.20;99.20;;;;;;5009829;28;20694;-72
2023/06/19 01:45:48;;;;;;;4.10;1.05;;;21.20;99.30;;;;;;5026507;28;20092;-71
2023/06/19 01:48:14;;;;;;;3.30;0.75;;;21.10;99.60;;;;;;5027469;28;20030;-73
2023/06/19 01:50:45;;;;;;;4.07;1.20;;;21.10;99.80;;;;;;5025785;28;20103;-72
2023/06/19 01:53:10;;;;;;;;;;;21.10;99.90;;;;;;5027920;28;20136;-71
2023/06/19 01:55:36;;;;;;;1.85;1.33;;;21.00;99.90;;;;;;5026578;28;20024;-72
2023/06/19 01:58:01;;;;;;;1.80;0.88;;;21.00;99.90;;;;;;5028429;28;20037;-71
2023/06/19 02:00:27;;;;;;;2.63;1.23;;;21.00;99.90;;;;;;5031434;28;20041;-73
2023/06/19 02:02:53;;;;;;;2.47;1.23;;;21.00;99.90;;;;;;5015684;28;20129;-72
2023/06/19 02:05:18;;;;;;;2.70;1.23;;;20.90;99.90;;;;;;5033476;28;20039;-72
2023/06/19 02:07:44;;;;;;;2.08;1.23;;;21.00;99.90;;;;;;5030274;28;20021;-72
2023/06/19 02:10:09;;;;;;;1.48;0.95;;;21.00;99.90;;;;;;5030526;28;20171;-72
2023/06/19 02:12:35;;;;;;;2.35;1.08;;;20.90;99.90;;;;;;5012473;28;20113;-71
2023/06/19 02:15:00;;;;;;;1.58;1.05;;;20.90;99.90;;;;;;5031273;28;20032;-72
2023/06/19 02:17:26;;;;;;;3.15;1.30;;;21.00;99.90;;;;;;5030292;28;20033;-72
2023/06/19 02:19:52;;;;;;;2.50;1.00;;;20.90;99.90;;;;;;5013227;28;20068;-72
2023/06/19 02:22:18;;;;;;;3.60;1.48;;;20.90;99.90;;;;;;5030915;28;20030;-71
2023/06/19 02:24:44;;;;;;;1.58;0.90;;;20.90;99.90;;;;;;5029157;28;20041;-71
2023/06/19 02:27:10;;;;;;;3.13;1.35;;;21.00;99.90;;;;;;5010572;28;20033;-71
2023/06/19 02:29:36;;;;;;;3.10;1.45;;;21.00;99.90;;;;;;5030368;28;20044;-71
2023/06/19 02:32:02;;;;;;;1.77;1.40;;;21.00;99.90;;;;;;5010634;28;20042;-71
2023/06/19 02:34:28;;;;;;;2.20;1.35;;;21.00;99.90;;;;;;5011248;28;20045;-71
2023/06/19 02:36:54;;;;;;;5.68;1.40;;;20.90;99.90;;;;;;5011312;28;20041;-72
2023/06/19 02:39:21;;;;;;;2.50;1.60;;;20.90;99.90;;;;;;5012557;28;20434;-71
2023/06/19 02:41:46;;;;;;;3.92;1.60;;;20.80;99.90;;;;;;5011543;28;20405;-71
2023/06/19 02:44:12;;;;;;;2.47;1.70;;;20.90;99.90;;;;;;5030792;28;20041;-71
2023/06/19 02:46:38;;;;;;;1.83;1.33;;;20.90;99.90;;;;;;5011375;28;20272;-72
2023/06/19 02:49:04;;;;;;;4.35;1.63;;;20.90;99.90;;;;;;5012878;28;20026;-72
2023/06/19 02:51:29;;;;;;;3.10;1.60;;;20.90;99.90;;;;;;5029092;28;20409;-71
2023/06/19 02:53:55;;;;;;;4.55;2.03;;;20.80;99.90;;;;;;5012775;28;20029;-71
2023/06/19 02:56:20;;;;;;;3.63;2.30;;;20.80;99.90;;;;;;5012791;28;20125;-70
2023/06/19 02:58:46;;;;;;;5.43;1.85;;;20.90;99.90;;;;;;5027026;28;20037;-73
2023/06/19 03:01:12;;;;;;;4.13;2.38;;;20.80;99.90;;;;;;5008079;28;20470;-71
2023/06/19 03:03:38;;;;;;;3.83;2.50;;;20.80;99.90;;;;;;5028359;28;20045;-73
2023/06/19 03:06:07;;;;;;;5.05;2.92;;;20.90;99.90;;;;;;5029244;28;20116;-71
2023/06/19 03:08:37;;;;;;;3.85;2.72;;;20.80;99.90;;;;;;5011431;28;20095;-72
2023/06/19 03:11:04;;;;;;;3.33;2.30;;;20.80;99.90;;;;;;5029068;28;20036;-72
2023/06/19 03:13:43;;;;;;;6.90;2.28;;;20.80;99.90;;;;;;5029148;28;20038;-72
2023/06/19 03:16:09;;;;;;;4.85;2.50;;;20.70;99.90;;;;;;5011874;28;20060;-72
2023/06/19 03:18:34;;;;;;;5.63;2.42;;;20.70;99.90;;;;;;5010899;28;20120;-72
2023/06/19 03:21:00;;;;;;;3.92;2.42;;;20.70;99.90;;;;;;5011531;28;20557;-72
2023/06/19 03:23:25;;;;;;;3.90;2.47;;;20.70;99.90;;;;;;5028375;28;20042;-72
2023/06/19 03:25:51;;;;;;;3.53;2.30;;;20.70;99.90;;;;;;5029552;28;20033;-72
2023/06/19 03:28:16;;;;;;;4.97;2.92;;;20.60;99.90;;;;;;5012080;28;20459;-71
2023/06/19 03:30:42;;;;;;;6.63;3.20;;;20.60;99.90;;;;;;5028744;28;20045;-72
2023/06/19 03:33:07;;;;;;;4.25;2.53;;;20.60;99.90;;;;;;5011399;28;20065;-72
2023/06/19 03:35:33;;;;;;;5.32;3.15;;;20.50;99.90;;;;;;5010403;28;20045;-71
2023/06/19 03:37:59;;;;;;;7.47;3.83;;;20.60;99.90;;;;;;5029519;28;20029;-72
2023/06/19 03:40:24;;;;;;;8.30;3.65;;;20.50;99.90;;;;;;5028466;28;20129;-71
2023/06/19 03:42:50;;;;;;;6.30;3.95;;;20.50;99.90;;;;;;5011491;28;20033;-72
2023/06/19 03:45:15;;;;;;;9.07;4.43;;;20.50;99.90;;;;;;5029582;28;20383;-72
2023/06/19 03:47:41;;;;;;;9.15;4.57;;;20.40;99.90;;;;;;5028181;28;20375;-72
2023/06/19 03:50:09;;;;;;;7.53;4.22;;;20.40;99.90;;;;;;5028447;28;20040;-72
2023/06/19 03:52:36;;;;;;;10.43;5.13;;;20.40;99.90;;;;;;5027954;28;20087;-71
2023/06/19 03:55:03;;;;;;;8.43;4.30;;;20.40;99.90;;;;;;5027758;28;20096;-72
2023/06/19 03:57:28;;;;;;;9.73;4.80;;;20.40;99.90;;;;;;5035864;28;20447;-72
2023/06/19 03:59:54;;;;;;;7.85;4.47;;;20.40;99.90;;;;;;5027704;28;20057;-72
2023/06/19 04:02:20;;;;;;;8.40;4.57;;;20.30;99.90;;;;;;5007846;28;20565;-72
2023/06/19 04:04:45;;;;;;;9.77;5.03;;;20.40;99.90;;;;;;5014312;28;20041;-72
2023/06/19 04:07:11;;;;;;;7.05;4.30;;;20.40;99.90;;;;;;5011009;28;20026;-72
2023/06/19 04:09:36;;;;;;;8.38;4.60;;;20.30;99.90;;;;;;5006314;28;20128;-72
2023/06/19 04:12:02;;;;;;;7.28;4.45;;;20.30;99.90;;;;;;5009915;28;20053;-72
2023/06/19 04:14:27;;;;;;;8.35;4.45;;;20.30;99.90;;;;;;5027935;28;20038;-73
2023/06/19 04:16:53;;;;;;;9.82;4.47;;;20.40;99.90;;;;;;5028711;28;20059;-73
2023/06/19 04:19:19;;;;;;;9.00;4.35;;;20.30;99.90;;;;;;5010733;28;20117;-74
2023/06/19 04:21:44;;;;;;;10.50;4.30;;;20.30;99.90;;;;;;5008753;28;20124;-73
2023/06/19 04:24:10;;;;;;;7.43;3.78;;;20.30;99.90;;;;;;5010824;28;20021;-74
2023/06/19 04:26:36;;;;;;;13.38;4.53;;;20.30;99.90;;;;;;5009791;28;20418;-73
2023/06/19 04:29:03;;;;;;;8.82;4.18;;;20.30;99.90;;;;;;5010296;28;20037;-72
2023/06/19 04:31:28;;;;;;;7.00;3.60;;;20.20;99.90;;;;;;5008463;28;20034;-73
2023/06/19 04:33:56;;;;;;;6.50;3.20;;;20.10;99.90;;;;;;5027639;28;20505;-72
2023/06/19 04:36:22;;;;;;;6.45;3.33;;;20.20;99.90;;;;;;5028391;28;20053;-72
2023/06/19 04:38:48;;;;;;;4.82;2.67;;;20.10;99.90;;;;;;5010149;28;20037;-71
2023/06/19 04:41:13;;;;;;;4.53;2.33;;;20.20;99.90;;;;;;5009986;28;20091;-72
2023/06/19 04:43:41;;;;;;;4.03;2.20;;;20.10;99.90;;;;;;5027280;28;20401;-72
2023/06/19 04:46:07;;;;;;;6.03;2.00;;;20.10;99.90;;;;;;5027662;28;20215;-72
2023/06/19 04:48:35;;;;;;;2.50;1.48;;;20.20;99.90;;;;;;5010348;28;20120;-72
2023/06/19 04:51:01;;;;;;;3.58;1.77;;;20.10;99.90;;;;;;5011740;28;20029;-72
2023/06/19 04:53:27;;;;;;;4.13;1.13;;;20.10;99.90;;;;;;5028717;28;20033;-71
2023/06/19 04:55:55;;;;;;;0.88;0.50;;;20.10;99.90;;;;;;5017292;28;20037;-71
2023/06/19 04:58:21;;;;;;;3.38;0.85;;;20.10;99.90;;;;;;5031362;28;20029;-71
2023/06/19 05:00:51;;;;;;;3.17;0.75;;;20.10;99.90;;;;;;5008229;28;20037;-70
2023/06/19 05:03:17;;;;;;;1.13;0.60;;;20.10;99.90;;;;;;5027692;28;20033;-73
2023/06/19 05:05:43;;;;;;;2.47;0.50;;;20.10;99.90;;;;;;5026310;28;20049;-72
2023/06/19 05:08:09;;;;;;;2.28;0.55;;;20.10;99.90;;;;;;5007547;28;20045;-74
2023/06/19 05:10:35;;;;;;;3.65;0.90;;;20.00;99.90;;;;;;5005941;28;20465;-72
2023/06/19 05:13:01;;;;;;;3.10;1.02;;;20.00;99.90;;;;;;5025061;28;20062;-71
2023/06/19 05:15:27;;;;;;;2.15;1.45;;;20.00;99.90;;;;;;5005999;28;20398;-72
2023/06/19 05:17:53;;;;;;;1.67;1.08;;;20.00;99.90;;;;;;5024222;28;20029;-72
2023/06/19 05:20:19;;;;;;;1.88;0.90;;;20.10;99.90;;;;;;5024756;28;20037;-72
2023/06/19 05:22:44;;;;;;;1.88;1.10;;;20.00;99.90;;;;;;5005457;28;20040;-72
2023/06/19 05:25:10;;;;;;;2.97;1.15;;;20.00;99.90;;;;;;5025002;28;20569;-72
2023/06/19 05:27:36;;;;;;;3.58;1.67;;;20.00;99.90;;;;;;5005614;28;20045;-72
2023/06/19 05:30:02;;;;;;;6.10;1.80;;;20.00;99.90;;;;;;5024417;28;20025;-72
2023/06/19 05:32:27;;;;;;;3.78;1.50;;;20.00;99.90;;;;;;5023178;28;20109;-72
2023/06/19 05:34:53;;;;;;;3.13;2.05;;;20.10;99.90;;;;;;5006348;28;20597;-72
2023/06/19 05:37:18;;;;;;;5.95;2.17;;;20.10;99.90;;;;;;5024599;28;20516;-73
2023/06/19 05:39:44;;;;;;;7.55;1.95;;;20.10;99.90;;;;;;5023189;28;20422;-72
2023/06/19 05:42:10;;;;;;;3.10;1.45;;;20.10;99.90;;;;;;5006995;28;20041;-72
2023/06/19 05:44:35;;;;;;;3.28;1.58;;;20.20;99.90;;;;;;5023235;28;20060;-73
2023/06/19 05:47:01;;;;;;;3.63;1.67;;;20.20;99.90;;;;;;5024610;28;20105;-72
2023/06/19 05:49:26;;;;;;;3.33;2.17;;;20.10;99.90;;;;;;5005626;28;20034;-73
2023/06/19 05:51:52;;;;;;;2.20;1.40;;;20.10;99.90;;;;;;5006595;28;20023;-72
2023/06/19 05:54:18;;;;;;;3.92;2.10;;;20.10;99.90;;;;;;5024080;28;20061;-72
2023/06/19 05:56:43;;;;;;;4.18;1.90;;;20.20;99.90;;;;;;5023509;28;20502;-71
2023/06/19 05:59:09;;;;;;;8.10;2.17;;;20.20;99.90;;;;;;5002740;28;20041;-71
2023/06/19 06:01:34;;;;;;;4.05;1.88;;;20.20;99.90;;;;;;5022695;28;20052;-71
2023/06/19 06:04:01;;;;;;;2.63;1.42;;;20.20;99.90;;;;;;5023046;28;20139;-72
2023/06/19 06:06:27;;;;;;;3.63;1.90;;;20.30;99.90;;;;;;5023133;28;20128;-72
2023/06/19 06:08:54;;;;;;;3.78;2.22;;;20.30;99.90;;;;;;5006329;28;20071;-72
2023/06/19 06:11:20;;;;;;;7.00;2.35;;;20.30;99.90;;;;;;5006181;28;20067;-71
2023/06/19 06:13:46;;;;;;;7.13;2.67;;;20.30;99.90;;;;;;5004822;28;20071;-71
2023/06/19 06:16:11;;;;;;;6.38;2.40;;;20.40;99.90;;;;;;5006239;28;20038;-71
2023/06/19 06:18:37;;;;;;;7.20;2.33;;;20.40;99.90;;;;;;5005121;28;20052;-72
2023/06/19 06:21:04;;;;;;;5.32;2.63;;;20.40;99.90;;;;;;5005702;28;20112;-72
2023/06/19 06:23:29;;;;;;;5.57;2.47;;;20.40;99.90;;;;;;5022955;28;20099;-72
2023/06/19 06:26:01;;;;;;;6.47;2.65;;;20.50;99.90;;;;;;5024394;28;20038;-72
2023/06/19 06:28:26;;;;;;;6.32;2.97;;;20.60;99.90;;;;;;5023048;28;20044;-72
2023/06/19 06:30:52;;;;;;;6.47;2.92;;;20.60;99.90;;;;;;5005617;28;20045;-72
2023/06/19 06:33:18;;;;;;;5.85;3.25;;;20.60;99.90;;;;;;5006703;28;20033;-71
2023/06/19 06:35:43;;;;;;;5.28;3.28;;;20.70;99.90;;;;;;5006326;28;20132;-73
2023/06/19 06:38:09;;;;;;;8.73;4.00;;;20.70;99.90;;;;;;5006695;28;20092;-72
2023/06/19 06:40:35;;;;;;;5.45;3.42;;;20.80;99.90;;;;;;5004882;28;20099;-71
2023/06/19 06:43:00;;;;;;;7.43;4.20;;;20.80;99.90;;;;;;5023945;28;20572;-72
2023/06/19 06:45:26;;;;;;;12.15;3.92;;;20.90;99.90;;;;;;5006980;28;20041;-72
2023/06/19 06:47:51;;;;;;;6.65;4.18;;;20.90;99.90;;;;;;5025736;28;20029;-73
2023/06/19 06:50:17;;;;;;;6.30;4.30;;;21.00;99.90;;;;;;5024603;28;20528;-71
2023/06/19 06:52:43;;;;;;;13.02;4.88;;;21.10;99.90;;;;;;5025962;28;20037;-72
2023/06/19 06:55:09;;;;;;;7.95;4.70;;;21.20;99.90;;;;;;5006492;28;20083;-72
2023/06/19 06:57:35;;;;;;;8.80;3.50;;;21.30;99.90;;;;;;5025706;28;20115;-72
2023/06/19 07:00:03;;;;;;;6.03;3.75;;;21.40;99.90;;;;;;5009345;28;20557;-72
2023/06/19 07:02:28;;;;;;;10.63;4.22;;;21.50;99.90;;;;;;5026001;28;20147;-72
2023/06/19 07:04:55;;;;;;;10.10;4.50;;;21.70;99.90;;;;;;5010096;28;20064;-71
2023/06/19 07:07:20;;;;;;;8.13;4.03;;;21.70;99.90;;;;;;5027657;28;20138;-72
2023/06/19 07:09:46;;;;;;;11.45;3.90;;;21.60;99.90;;;;;;5008299;28;20645;-72
2023/06/19 07:12:12;;;;;;;9.00;4.65;;;21.70;99.90;;;;;;5009369;28;20111;-72
2023/06/19 07:14:38;;;;;;;8.05;3.90;;;21.50;99.90;;;;;;5007568;28;20029;-72
2023/06/19 07:17:06;;;;;;;8.77;3.95;;;21.50;99.90;;;;;;5027243;28;20736;-72
2023/06/19 07:19:32;;;;;;;9.65;3.92;;;21.40;99.90;;;;;;5007806;28;20030;-72
2023/06/19 07:21:59;;;;;;;9.80;3.95;;;21.80;99.90;;;;;;5026853;28;20374;-72
2023/06/19 07:24:24;;;;;;;7.30;3.92;;;22.20;99.90;;;;;;5026471;28;20029;-72
2023/06/19 07:26:50;;;;;;;9.90;4.13;;;22.50;99.90;;;;;;5008636;28;20049;-71
2023/06/19 07:29:15;;;;;;;7.18;3.78;;;22.80;99.70;;;;;;5009000;28;20036;-72
2023/06/19 07:31:42;;;;;;;7.30;3.85;;;22.90;99.40;;;;;;5006110;28;20034;-72
2023/06/19 07:34:08;;;;;;;8.85;4.43;;;22.70;99.50;;;;;;5026937;28;20167;-72
2023/06/19 07:36:35;;;;;;;10.30;5.68;;;22.70;99.70;;;;;;5025257;28;20476;-72
2023/06/19 07:39:01;;;;;;;9.23;5.07;;;22.60;99.80;;;;;;5009199;28;20113;-71
2023/06/19 07:41:26;;;;;;;9.57;5.00;;;22.60;99.90;;;;;;5006894;28;20060;-71
2023/06/19 07:43:52;;;;;;;10.98;6.32;;;22.40;99.90;;;;;;5008537;28;20485;-71
2023/06/19 07:46:18;;;;;;;9.48;5.97;;;22.40;99.90;;;;;;5008726;28;20132;-71
2023/06/19 07:48:43;;;;;;;7.65;5.13;;;22.20;99.90;;;;;;5006956;28;20042;-70
2023/06/19 07:51:10;;;;;;;12.43;5.78;;;22.10;99.90;;;;;;5007741;28;20042;-72
2023/06/19 07:53:35;;;;;;;9.18;4.70;;;22.10;99.90;;;;;;5024217;28;20034;-71
2023/06/19 07:56:01;;;;;;;13.88;5.90;;;22.00;99.90;;;;;;5025688;28;20048;-71
2023/06/19 07:58:26;;;;;;;14.48;5.32;;;22.10;99.90;;;;;;5005891;28;20125;-72
2023/06/19 08:00:52;;;;;;;12.00;6.05;;;22.30;99.90;;;;;;5007857;28;20563;-72
2023/06/19 08:03:18;;;;;;;10.95;6.20;;;22.70;99.90;;;;;;5026749;28;20033;-71
2023/06/19 08:05:43;;;;;;;10.07;5.53;;;22.80;99.60;;;;;;5026690;28;20119;-71
2023/06/19 08:08:09;;;;;;;9.60;5.57;;;23.00;99.40;;;;;;5009074;28;20126;-71
2023/06/19 08:10:35;;;;;;;13.68;6.30;;;23.10;98.80;;;;;;5007215;28;20069;-72
2023/06/19 08:13:00;;;;;;;10.80;6.35;;;23.40;98.50;;;;;;5008462;28;20038;-73
2023/06/19 08:15:26;;;;;;;9.13;5.32;;;24.00;97.40;;;;;;5025319;28;20052;-72
2023/06/19 08:17:52;;;;;;;11.00;5.82;;;24.30;97.10;;;;;;5008416;28;20121;-72
2023/06/19 08:20:17;;;;;;;9.02;5.82;;;24.80;95.50;;;;;;5007880;28;20117;-70
2023/06/19 08:22:43;;;;;;;9.95;4.97;;;25.00;94.90;;;;;;5006943;28;20033;-73
2023/06/19 08:25:08;;;;;;;9.02;5.47;;;25.20;94.50;;;;;;5026161;28;20040;-72
2023/06/19 08:27:34;;;;;;;11.15;5.82;;;24.90;94.10;;;;;;5006983;28;20111;-73
2023/06/19 08:30:00;;;;;;;10.95;5.43;;;24.80;94.30;;;;;;5007930;28;20432;-71
2023/06/19 08:32:26;;;;;;;11.00;6.40;;;24.70;94.20;;;;;;5024326;28;20041;-71
2023/06/19 08:34:52;;;;;;;10.55;5.65;;;24.60;94.40;;;;;;5025808;28;20038;-71
2023/06/19 08:37:21;;;;;;;8.55;5.30;;;24.60;94.80;;;;;;5008124;28;20037;-72
2023/06/19 08:39:46;;;;;;;9.98;5.50;;;24.70;94.60;;;;;;5024122;28;20026;-72
2023/06/19 08:42:12;;;;;;;11.68;5.70;;;24.60;94.10;;;;;;5024924;28;20035;-71
2023/06/19 08:44:38;;;;;;;12.00;5.85;;;24.40;93.80;;;;;;5006544;28;20121;-71
2023/06/19 08:47:04;;;;;;;13.05;6.10;;;24.30;94.20;;;;;;5026587;28;20118;-73
2023/06/19 08:49:31;;;;;;;11.15;5.63;;;24.30;94.70;;;;;;5024330;28;20041;-71
2023/06/19 08:51:57;;;;;;;9.75;5.85;;;24.20;95.00;;;;;;5007849;28;20037;-70
2023/06/19 08:54:22;;;;;;;12.90;6.78;;;24.40;94.50;;;;;;5006553;28;20032;-71
2023/06/19 08:56:48;;;;;;;10.05;6.30;;;24.30;94.30;;;;;;5024794;28;20025;-72
2023/06/19 08:59:16;;;;;;;10.88;6.47;;;24.30;94.50;;;;;;5007308;28;20037;-71
2023/06/19 09:01:53;;;;;;;11.07;5.90;;;24.10;94.60;;;;;;5024008;28;20124;-72
2023/06/19 09:04:21;;;;;;;12.02;6.40;;;23.90;94.70;;;;;;5008584;28;20903;-72
2023/06/19 09:06:53;;;;;;;9.55;6.30;;;23.90;95.00;;;;;;5006120;28;20114;-72
2023/06/19 09:09:20;;;;;;;13.98;6.30;;;23.90;95.20;;;;;;5006837;28;20053;-72
2023/06/19 09:12:08;;;;;;;9.63;6.07;;;23.90;94.90;;;;;;5023270;28;20036;-73
2023/06/19 09:14:41;;;;;;;12.38;6.38;;;23.60;95.20;;;;;;5003008;28;20037;-72
2023/06/19 09:17:10;;;;;;;9.18;5.50;;;23.90;95.60;;;;;;5024444;28;20030;-72
2023/06/19 09:19:36;;;;;;;11.25;5.88;;;24.10;95.00;;;;;;5005812;28;20044;-71
2023/06/19 09:22:06;;;;;;;13.70;5.53;;;24.20;94.80;;;;;;5025726;28;20591;-71
2023/06/19 09:24:40;;;;;;;18.05;6.05;;;24.30;94.90;;;;;;5025659;28;20486;-71
2023/06/19 09:27:20;;;;;;;15.73;6.60;;;24.60;94.50;;;;;;5007706;28;20116;-72
2023/06/19 09:29:49;;;;;;;12.10;7.15;;;24.90;93.60;;;;;;5006478;28;20034;-72
2023/06/19 09:32:22;;;;;;;8.23;5.70;;;24.90;92.90;;;;;;5006724;28;20059;-72
2023/06/19 09:34:50;;;;;;;9.80;5.05;;;24.90;93.20;;;;;;5022173;28;20109;-71
2023/06/19 09:37:24;;;;;;;10.52;6.18;;;24.60;93.40;;;;;;5006384;28;20033;-71
2023/06/19 09:39:58;;;;;;;12.23;6.53;;;24.50;93.50;;;;;;5005992;28;20052;-72
2023/06/19 09:42:30;;;;;;;14.02;7.18;;;24.40;93.60;;;;;;5023726;28;20101;-73
2023/06/19 09:45:04;;;;;;;12.15;6.80;;;24.20;93.70;;;;;;5005997;28;20052;-71
2023/06/19 09:47:36;;;;;;;10.80;6.25;;;24.00;94.00;;;;;;5021559;28;20037;-72
2023/06/19 09:50:03;;;;;;;11.15;6.40;;;24.00;93.90;;;;;;5021409;28;20044;-73
2023/06/19 09:52:29;;;;;;;13.18;6.03;;;23.90;94.20;;;;;;5022020;28;20038;-71
2023/06/19 09:54:57;;;;;;;11.30;6.65;;;24.00;94.10;;;;;;5006505;28;20029;-72
2023/06/19 09:57:23;;;;;;;10.82;6.65;;;24.30;94.30;;;;;;5024127;28;20117;-71
2023/06/19 09:59:56;;;;;;;13.18;6.68;;;24.60;93.90;;;;;;5022518;28;20092;-71
2023/06/19 10:02:24;;;;;;;12.02;6.82;;;25.10;93.30;;;;;;5006772;28;20057;-72
2023/06/19 10:04:53;;;;;;;11.95;6.65;;;25.40;92.50;;;;;;5023513;28;20061;-72
2023/06/19 10:07:23;;;;;;;14.73;7.57;;;25.70;92.10;;;;;;5006251;28;20033;-72
2023/06/19 10:09:56;;;;;;;15.45;7.18;;;25.90;91.40;;;;;;5023421;28;20491;-71
2023/06/19 10:12:22;;;;;;;10.63;6.05;;;25.90;91.60;;;;;;5006331;28;20044;-72
2023/06/19 10:14:51;;;;;;;10.88;5.97;;;25.90;91.60;;;;;;5005480;28;20441;-72
2023/06/19 10:17:17;;;;;;;11.05;5.28;;;26.00;91.20;;;;;;5024147;28;20586;-72
2023/06/19 10:19:50;;;;;;;9.35;5.38;;;26.10;91.10;;;;;;5023224;28;20087;-72
2023/06/19 10:22:21;;;;;;;8.75;5.85;;;26.20;90.30;;;;;;5027769;28;20048;-71
2023/06/19 10:24:50;;;;;;;9.85;5.75;;;26.20;90.40;;;;;;5026357;28;20025;-72
2023/06/19 10:27:22;;;;;;;11.13;6.43;;;26.40;90.60;;;;;;5009690;28;20029;-72
2023/06/19 10:29:59;;;;;;;13.95;6.15;;;26.70;90.50;;;;;;5023963;28;20105;-71
2023/06/19 10:32:25;;;;;;;11.20;5.88;;;27.00;88.90;;;;;;5026435;28;20026;-74
2023/06/19 10:34:50;;;;;;;16.98;7.55;;;26.80;87.80;;;;;;5027241;28;20941;-72
2023/06/19 10:37:16;;;;;;;11.52;6.55;;;26.30;89.20;;;;;;5027957;28;20104;-73
2023/06/19 10:39:43;;;;;;;11.63;5.85;;;26.10;89.50;;;;;;5026582;28;20030;-72
2023/06/19 10:42:10;;;;;;;8.88;5.85;;;25.90;90.20;;;;;;5027453;28;20057;-72
2023/06/19 10:44:37;;;;;;;11.13;5.82;;;26.00;90.20;;;;;;5026372;28;20436;-70
2023/06/19 10:47:04;;;;;;;7.90;5.07;;;26.10;88.90;;;;;;5026462;28;20095;-71
2023/06/19 10:49:30;;;;;;;14.88;5.47;;;26.10;89.90;;;;;;5009164;28;20132;-73
2023/06/19 10:51:59;;;;;;;8.50;5.28;;;26.30;89.00;;;;;;5027355;28;20133;-71
2023/06/19 10:54:25;;;;;;;10.85;5.88;;;26.40;88.80;;;;;;5027627;28;20106;-74
2023/06/19 10:56:51;;;;;;;13.93;5.80;;;26.50;89.60;;;;;;5028666;28;20390;-72
2023/06/19 10:59:18;;;;;;;8.00;5.63;;;26.60;88.70;;;;;;5029182;28;20036;-72
2023/06/19 11:01:48;;;;;;;16.05;5.80;;;26.70;86.60;;;;;;5010382;28;20406;-71
2023/06/19 11:04:15;;;;;;;8.15;5.18;;;26.70;87.80;;;;;;5028691;28;20551;-72
2023/06/19 11:06:45;;;;;;;9.80;5.47;;;26.60;87.80;;;;;;5005447;28;20069;-72
2023/06/19 11:09:13;;;;;;;9.88;5.22;;;26.50;88.40;;;;;;5010533;28;20037;-72
2023/06/19 11:11:43;;;;;;;8.45;5.43;;;26.40;88.30;;;;;;5024641;28;20041;-71
2023/06/19 11:14:12;;;;;;;9.48;5.97;;;26.60;89.30;;;;;;5027002;28;20034;-72
2023/06/19 11:16:42;;;;;;;10.18;5.43;;;26.50;89.10;;;;;;5025900;28;20043;-72
2023/06/19 11:19:09;;;;;;;8.93;5.60;;;26.60;87.70;;;;;;5026570;28;20164;-74
2023/06/19 11:21:38;;;;;;;7.78;4.65;;;26.70;88.00;;;;;;5025358;28;20444;-71
2023/06/19 11:24:11;;;;;;;8.55;4.15;;;26.80;87.70;;;;;;5026929;28;20037;-72
2023/06/19 11:26:49;;;;;;;8.35;4.13;;;26.90;87.70;;;;;;5025473;28;20450;-72
2023/06/19 11:29:20;;;;;;;7.88;4.35;;;27.10;87.10;;;;;;5009481;28;20041;-71
2023/06/19 11:31:47;;;;;;;7.05;4.53;;;27.00;85.70;;;;;;5007283;28;20045;-71
2023/06/19 11:34:13;;;;;;;6.25;3.75;;;27.00;86.40;;;;;;5027125;28;20038;-72
2023/06/19 11:36:43;;;;;;;9.98;4.15;;;26.90;87.10;;;;;;5025482;28;20136;-72
2023/06/19 11:39:13;;;;;;;8.13;4.55;;;26.90;86.50;;;;;;5026834;28;20037;-73
2023/06/19 11:41:39;;;;;;;;;;;27.00;86.40;;;;;;5008406;28;20148;-71
2023/06/19 11:44:06;;;;;;;8.57;4.85;;;27.10;87.30;;;;;;5009091;28;20003;-71
2023/06/19 11:46:33;;;;;;;6.40;4.18;;;27.00;85.40;;;;;;5025665;28;20041;-72
2023/06/19 11:49:17;;;;;;;9.00;4.95;;;26.90;87.20;;;;;;5025964;28;20033;-71
2023/06/19 11:51:43;;;;;;;9.38;4.90;;;26.70;86.90;;;;;;5025963;28;20041;-72
2023/06/19 11:54:11;;;;;;;9.73;5.70;;;26.80;86.50;;;;;;5010706;28;20856;-71
2023/06/19 11:56:40;;;;;;;8.18;4.53;;;26.80;85.80;;;;;;5006037;28;20033;-72
2023/06/19 11:59:06;;;;;;;4.80;4.00;;;26.80;86.00;;;;;;5028153;28;20095;-73
2023/06/19 12:01:32;;;;;;;7.18;3.85;;;26.90;86.00;;;;;;5026110;28;20041;-72
2023/06/19 12:03:59;;;;;;;6.82;4.05;;;27.00;86.30;;;;;;5026584;28;20045;-73
2023/06/19 12:06:24;;;;;;;5.60;3.80;;;27.10;85.90;;;;;;5025192;28;20501;-72
2023/06/19 12:08:50;;;;;;;7.90;4.03;;;27.20;85.50;;;;;;5008799;28;20037;-73
2023/06/19 12:11:16;;;;;;;9.50;4.50;;;27.30;85.90;;;;;;5027763;28;20041;-71
2023/06/19 12:13:41;;;;;;;11.82;5.25;;;27.40;85.20;;;;;;5026808;28;20037;-71
2023/06/19 12:16:08;;;;;;;6.47;4.10;;;27.30;84.70;;;;;;5027873;28;20045;-72
2023/06/19 12:18:34;;;;;;;5.80;3.63;;;27.10;84.60;;;;;;5008782;28;20102;-72
2023/06/19 12:21:00;;;;;;;6.00;3.55;;;27.10;84.70;;;;;;5027436;28;20030;-70
2023/06/19 12:23:25;;;;;;;7.72;4.45;;;27.10;85.50;;;;;;5026914;28;20034;-73
2023/06/19 12:25:51;;;;;;;9.15;4.90;;;27.10;84.40;;;;;;5026886;28;20482;-72
2023/06/19 12:28:19;;;;;;;11.85;4.70;;;27.20;84.60;;;;;;5009297;28;20041;-72
2023/06/19 12:30:45;;;;;;;9.40;4.40;;;27.20;83.80;;;;;;5025909;28;20041;-73
2023/06/19 12:33:11;;;;;;;5.55;3.95;;;27.20;84.70;;;;;;5009112;28;20033;-71
2023/06/19 12:35:41;;;;;;;7.70;3.72;;;27.20;84.90;;;;;;5026347;28;20049;-71
2023/06/19 12:38:07;;;;;;;6.38;3.83;;;27.30;85.00;;;;;;5027013;28;20511;-71
2023/06/19 12:40:33;;;;;;;7.93;4.05;;;27.20;84.50;;;;;;5008013;28;20033;-71
2023/06/19 12:42:58;;;;;;;7.53;4.68;;;27.40;83.30;;;;;;5026256;28;20040;-72
2023/06/19 12:45:24;;;;;;;6.70;4.20;;;27.40;83.10;;;;;;5026900;28;20603;-72